createdAt,value
2018-07-17T00:00:43.035Z,18.00
2018-07-17T00:03:11.162Z,18.00
2018-07-17T00:05:39.215Z,18.00
2018-07-17T00:08:07.339Z,18.00
2018-07-17T00:10:35.427Z,17.90
2018-07-17T00:13:03.521Z,18.00
2018-07-17T00:15:31.649Z,17.90
2018-07-17T00:17:59.755Z,18.00
2018-07-17T00:20:27.886Z,18.00
2018-07-17T00:22:56.008Z,18.00
2018-07-17T00:25:24.147Z,18.00
2018-07-17T00:27:52.271Z,18.00
2018-07-17T00:30:20.387Z,17.90
2018-07-17T00:32:48.503Z,17.90
2018-07-17T00:35:16.631Z,18.00
2018-07-17T00:37:44.766Z,18.00
2018-07-17T00:40:12.888Z,18.00
2018-07-17T00:42:41.005Z,18.00
2018-07-17T00:45:09.144Z,17.90
2018-07-17T00:47:37.256Z,17.90
2018-07-17T00:50:05.844Z,17.90
2018-07-17T00:52:34.015Z,17.90
2018-07-17T00:55:02.088Z,17.90
2018-07-17T00:57:30.188Z,17.90
2018-07-17T00:59:58.267Z,17.90
2018-07-17T01:02:31.825Z,17.80
2018-07-17T01:05:05.457Z,17.80
2018-07-17T01:07:39.113Z,17.70
2018-07-17T01:10:12.673Z,17.70
2018-07-17T01:12:40.064Z,17.70
2018-07-17T01:15:12.264Z,17.70
2018-07-17T01:17:40.380Z,17.60
2018-07-17T01:20:08.473Z,17.50
2018-07-17T01:22:36.588Z,17.50
2018-07-17T01:25:04.743Z,17.50
2018-07-17T01:27:32.855Z,17.50
2018-07-17T01:30:00.972Z,17.50
2018-07-17T01:32:29.072Z,17.50
2018-07-17T01:34:57.305Z,17.50
2018-07-17T01:37:25.386Z,17.50
2018-07-17T01:39:53.535Z,17.30
2018-07-17T01:42:21.624Z,17.20
2018-07-17T01:44:49.730Z,17.10
2018-07-17T01:47:17.817Z,17.00
2018-07-17T01:49:45.919Z,16.90
2018-07-17T01:52:14.021Z,17.00
2018-07-17T01:54:42.131Z,17.00
2018-07-17T01:57:10.237Z,17.00
2018-07-17T02:02:06.296Z,17.00
2018-07-17T02:04:34.415Z,17.10
2018-07-17T02:07:02.513Z,17.10
2018-07-17T02:09:30.631Z,17.10
2018-07-17T02:11:58.731Z,17.10
2018-07-17T02:14:26.863Z,17.10
2018-07-17T02:16:54.964Z,17.00
2018-07-17T02:19:23.071Z,16.90
2018-07-17T02:21:51.164Z,16.90
2018-07-17T02:24:19.238Z,16.90
2018-07-17T02:26:47.315Z,16.90
2018-07-17T02:31:43.368Z,16.90
2018-07-17T02:34:11.472Z,16.90
2018-07-17T02:36:39.555Z,16.90
2018-07-17T02:39:08.379Z,16.80
2018-07-17T02:41:36.465Z,16.80
2018-07-17T02:44:04.577Z,16.80
2018-07-17T02:46:32.694Z,16.80
2018-07-17T02:49:00.779Z,16.80
2018-07-17T02:51:28.877Z,16.70
2018-07-17T02:53:56.965Z,16.70
2018-07-17T02:56:25.055Z,16.70
2018-07-17T02:58:53.153Z,16.70
2018-07-17T03:01:21.224Z,16.60
2018-07-17T03:03:49.325Z,16.50
2018-07-17T03:06:17.390Z,16.40
2018-07-17T03:08:45.491Z,16.30
2018-07-17T03:11:13.604Z,16.20
2018-07-17T03:13:41.676Z,16.20
2018-07-17T03:16:09.766Z,16.10
2018-07-17T03:18:37.910Z,16.20
2018-07-17T03:21:06.022Z,16.00
2018-07-17T03:23:34.124Z,16.00
2018-07-17T03:26:02.224Z,16.00
2018-07-17T03:28:30.315Z,16.10
2018-07-17T03:30:58.396Z,16.10
2018-07-17T03:33:26.499Z,16.10
2018-07-17T03:35:54.583Z,16.00
2018-07-17T03:38:29.220Z,16.10
2018-07-17T03:40:57.317Z,16.10
2018-07-17T03:43:25.399Z,16.10
2018-07-17T03:45:53.489Z,16.00
2018-07-17T03:48:21.573Z,16.10
2018-07-17T03:50:49.667Z,16.10
2018-07-17T03:53:17.747Z,16.10
2018-07-17T03:55:45.837Z,16.10
2018-07-17T03:58:13.907Z,16.10
2018-07-17T04:00:42.020Z,16.10
2018-07-17T04:03:10.089Z,16.00
2018-07-17T04:05:38.206Z,15.90
2018-07-17T04:08:06.352Z,15.90
2018-07-17T04:10:34.447Z,15.90
2018-07-17T04:13:02.562Z,16.00
2018-07-17T04:15:30.666Z,16.00
2018-07-17T04:17:58.756Z,16.10
2018-07-17T04:20:26.862Z,16.20
2018-07-17T04:22:54.930Z,16.30
2018-07-17T04:25:23.054Z,16.30
2018-07-17T04:27:51.185Z,16.30
2018-07-17T04:30:19.276Z,16.40
2018-07-17T04:32:47.366Z,16.40
2018-07-17T04:35:15.490Z,16.50
2018-07-17T04:37:43.567Z,16.50
2018-07-17T04:40:11.642Z,16.60
2018-07-17T04:45:07.644Z,16.70
2018-07-17T04:47:35.750Z,16.70
2018-07-17T04:50:03.852Z,16.80
2018-07-17T04:52:31.918Z,16.70
2018-07-17T04:55:00.017Z,16.80
2018-07-17T04:57:34.845Z,16.90
2018-07-17T05:00:02.970Z,16.90
2018-07-17T05:02:31.064Z,17.00
2018-07-17T05:04:59.175Z,17.10
2018-07-17T05:07:27.260Z,17.10
2018-07-17T05:09:55.343Z,17.20
2018-07-17T05:12:23.471Z,17.30
2018-07-17T05:14:51.545Z,17.40
2018-07-17T05:17:19.657Z,17.60
2018-07-17T05:19:47.750Z,17.60
2018-07-17T05:22:15.877Z,17.70
2018-07-17T05:24:43.962Z,17.90
2018-07-17T05:27:12.113Z,18.00
2018-07-17T05:29:40.240Z,18.10
2018-07-17T05:32:08.343Z,18.40
2018-07-17T05:37:04.515Z,18.90
2018-07-17T05:39:32.608Z,19.10
2018-07-17T05:42:00.716Z,19.30
2018-07-17T05:44:28.817Z,19.50
2018-07-17T05:46:56.933Z,19.70
2018-07-17T05:49:25.025Z,20.00
2018-07-17T05:51:53.140Z,20.20
2018-07-17T05:54:21.223Z,20.40
2018-07-17T05:56:49.360Z,20.60
2018-07-17T05:59:17.488Z,20.80
2018-07-17T06:01:45.707Z,21.00
2018-07-17T06:04:13.820Z,21.20
2018-07-17T06:06:41.932Z,21.40
2018-07-17T06:09:11.034Z,21.70
2018-07-17T06:11:39.333Z,22.00
2018-07-17T06:14:07.455Z,22.30
2018-07-17T06:16:35.572Z,22.40
2018-07-17T06:19:03.919Z,22.60
2018-07-17T06:21:32.012Z,22.80
2018-07-17T06:24:00.086Z,22.90
2018-07-17T06:26:28.207Z,23.20
2018-07-17T06:28:56.751Z,23.40
2018-07-17T06:31:24.860Z,23.60
2018-07-17T06:33:52.934Z,23.70
2018-07-17T06:36:21.032Z,23.80
2018-07-17T06:38:49.176Z,24.00
2018-07-17T06:41:17.259Z,24.30
2018-07-17T06:43:45.340Z,24.50
2018-07-17T06:46:13.435Z,24.60
2018-07-17T06:48:41.535Z,24.80
2018-07-17T06:51:09.620Z,24.90
2018-07-17T06:53:37.701Z,25.00
2018-07-17T06:56:05.814Z,25.10
2018-07-17T06:58:33.902Z,25.40
2018-07-17T07:01:02.068Z,25.70
2018-07-17T07:03:30.159Z,25.90
2018-07-17T07:05:58.275Z,26.10
2018-07-17T07:08:26.375Z,26.20
2018-07-17T07:10:54.460Z,26.40
2018-07-17T07:13:22.566Z,26.50
2018-07-17T07:15:50.680Z,26.70
2018-07-17T07:18:18.808Z,26.90
2018-07-17T07:20:46.912Z,27.00
2018-07-17T07:23:15.119Z,27.10
2018-07-17T07:25:43.168Z,27.40
2018-07-17T07:28:11.300Z,27.50
2018-07-17T07:30:39.391Z,27.60
2018-07-17T07:33:07.500Z,27.80
2018-07-17T07:35:35.595Z,27.90
2018-07-17T07:38:03.745Z,27.90
2018-07-17T07:40:31.847Z,28.00
2018-07-17T07:42:59.957Z,28.20
2018-07-17T07:45:28.055Z,28.30
2018-07-17T07:47:56.536Z,28.30
2018-07-17T07:50:25.017Z,28.40
2018-07-17T07:52:53.186Z,28.40
2018-07-17T07:55:21.388Z,28.50
2018-07-17T07:57:50.061Z,28.60
2018-07-17T08:00:18.265Z,28.70
2018-07-17T08:02:46.378Z,28.90
2018-07-17T08:05:14.465Z,29.20
2018-07-17T08:07:42.576Z,29.40
2018-07-17T08:10:10.700Z,29.50
2018-07-17T08:12:38.809Z,29.50
2018-07-17T08:15:07.169Z,29.60
2018-07-17T08:17:35.291Z,29.60
2018-07-17T08:20:03.387Z,29.70
2018-07-17T08:22:31.507Z,29.80
2018-07-17T08:24:59.629Z,29.60
2018-07-17T08:27:27.732Z,29.60
2018-07-17T08:29:55.844Z,29.70
2018-07-17T08:32:23.990Z,29.90
2018-07-17T08:34:52.141Z,29.90
2018-07-17T08:37:20.307Z,29.90
2018-07-17T08:39:48.427Z,30.00
2018-07-17T08:42:16.703Z,30.10
2018-07-17T08:44:44.804Z,30.20
2018-07-17T08:47:13.045Z,30.20
2018-07-17T08:49:41.166Z,30.30
2018-07-17T08:52:09.300Z,30.30
2018-07-17T08:54:37.772Z,30.40
2018-07-17T08:57:05.832Z,30.50
2018-07-17T08:59:33.943Z,30.70
2018-07-17T09:02:02.105Z,30.80
2018-07-17T09:04:30.218Z,30.90
2018-07-17T09:06:58.353Z,30.70
2018-07-17T09:09:26.462Z,30.80
2018-07-17T09:11:54.583Z,31.00
2018-07-17T09:14:22.876Z,31.00
2018-07-17T09:16:51.001Z,31.00
2018-07-17T09:19:19.129Z,31.00
2018-07-17T09:21:47.321Z,31.10
2018-07-17T09:24:15.460Z,31.20
2018-07-17T09:26:43.575Z,31.30
2018-07-17T09:29:11.691Z,31.20
2018-07-17T09:31:39.814Z,31.20
2018-07-17T09:34:07.934Z,31.40
2018-07-17T09:36:36.039Z,31.20
2018-07-17T09:39:05.331Z,31.30
2018-07-17T09:41:33.344Z,31.40
2018-07-17T09:44:01.455Z,31.50
2018-07-17T09:46:29.679Z,31.50
2018-07-17T09:48:57.826Z,31.50
2018-07-17T09:51:25.911Z,31.60
2018-07-17T09:53:54.019Z,31.80
2018-07-17T09:56:22.159Z,31.90
2018-07-17T09:58:50.301Z,31.80
2018-07-17T10:01:24.108Z,31.70
2018-07-17T10:03:52.243Z,31.90
2018-07-17T10:06:20.354Z,32.00
2018-07-17T10:08:48.448Z,32.20
2018-07-17T10:11:16.539Z,32.40
2018-07-17T10:13:44.665Z,32.60
2018-07-17T10:16:12.771Z,32.80
2018-07-17T10:18:40.862Z,32.70
2018-07-17T10:21:13.850Z,32.70
2018-07-17T10:23:41.940Z,32.70
2018-07-17T10:26:10.080Z,32.80
2018-07-17T10:28:38.317Z,32.90
2018-07-17T10:31:06.717Z,33.00
2018-07-17T10:33:35.177Z,32.80
2018-07-17T10:36:03.268Z,32.80
2018-07-17T10:38:31.384Z,32.90
2018-07-17T10:40:59.644Z,33.10
2018-07-17T10:43:27.825Z,33.10
2018-07-17T10:45:55.920Z,33.10
2018-07-17T10:48:24.029Z,33.10
2018-07-17T10:50:52.131Z,33.20
2018-07-17T10:53:20.219Z,33.00
2018-07-17T10:55:48.350Z,33.10
2018-07-17T10:58:16.473Z,32.90
2018-07-17T11:00:44.574Z,32.90
2018-07-17T11:03:12.673Z,32.80
2018-07-17T11:05:40.759Z,32.70
2018-07-17T11:08:08.858Z,32.70
2018-07-17T11:10:37.060Z,32.50
2018-07-17T11:13:05.166Z,32.60
2018-07-17T11:15:33.291Z,32.60
2018-07-17T11:18:01.408Z,32.60
2018-07-17T11:20:29.498Z,32.70
2018-07-17T11:22:57.635Z,32.80
2018-07-17T11:25:25.718Z,32.60
2018-07-17T11:27:53.887Z,32.60
2018-07-17T11:30:21.997Z,32.60
2018-07-17T11:32:50.123Z,32.90
2018-07-17T11:35:18.234Z,32.90
2018-07-17T11:37:46.464Z,32.70
2018-07-17T11:40:15.055Z,32.60
2018-07-17T11:42:43.559Z,32.80
2018-07-17T11:45:11.673Z,33.00
2018-07-17T11:47:39.841Z,33.20
2018-07-17T11:50:08.359Z,33.40
2018-07-17T11:52:36.675Z,33.50
2018-07-17T11:55:05.485Z,33.60
2018-07-17T11:57:33.932Z,33.70
2018-07-17T12:00:02.072Z,33.70
2018-07-17T12:02:30.183Z,33.50
2018-07-17T12:04:58.295Z,33.60
2018-07-17T12:07:26.393Z,33.80
2018-07-17T12:09:54.519Z,33.80
2018-07-17T12:12:22.708Z,33.90
2018-07-17T12:14:50.833Z,33.80
2018-07-17T12:17:18.940Z,33.40
2018-07-17T12:19:47.053Z,33.40
2018-07-17T12:22:15.136Z,33.40
2018-07-17T12:24:43.385Z,33.50
2018-07-17T12:27:11.560Z,33.50
2018-07-17T12:29:39.715Z,33.60
2018-07-17T12:32:07.851Z,33.70
2018-07-17T12:34:35.967Z,33.50
2018-07-17T12:37:04.073Z,33.40
2018-07-17T12:39:32.153Z,33.20
2018-07-17T12:42:00.263Z,33.20
2018-07-17T12:44:28.440Z,33.40
2018-07-17T12:46:56.463Z,33.30
2018-07-17T12:49:24.764Z,33.50
2018-07-17T12:51:52.858Z,33.60
2018-07-17T12:54:20.954Z,33.50
2018-07-17T12:56:49.062Z,33.20
2018-07-17T12:59:17.148Z,33.10
2018-07-17T13:01:45.257Z,33.00
2018-07-17T13:04:13.339Z,32.90
2018-07-17T13:06:41.433Z,32.70
2018-07-17T13:09:10.131Z,32.60
2018-07-17T13:11:38.216Z,32.60
2018-07-17T13:14:06.414Z,32.70
2018-07-17T13:16:34.593Z,32.90
2018-07-17T13:19:02.744Z,33.20
2018-07-17T13:21:30.892Z,33.30
2018-07-17T13:23:58.985Z,33.20
2018-07-17T13:26:27.099Z,33.20
2018-07-17T13:28:55.212Z,33.40
2018-07-17T13:31:23.347Z,33.50
2018-07-17T13:33:51.510Z,33.50
2018-07-17T13:36:19.636Z,33.60
2018-07-17T13:38:47.745Z,33.50
2018-07-17T13:41:15.852Z,33.40
2018-07-17T13:43:44.014Z,33.20
2018-07-17T13:46:12.133Z,33.10
2018-07-17T13:48:40.300Z,33.20
2018-07-17T13:51:08.471Z,33.20
2018-07-17T13:53:36.595Z,33.20
2018-07-17T13:56:04.811Z,33.30
2018-07-17T13:58:32.922Z,33.40
2018-07-17T14:01:01.039Z,33.50
2018-07-17T14:03:29.147Z,33.50
2018-07-17T14:05:57.268Z,33.20
2018-07-17T14:08:25.383Z,33.20
2018-07-17T14:10:53.570Z,33.30
2018-07-17T14:13:21.677Z,33.50
2018-07-17T14:18:17.742Z,33.50
2018-07-17T14:20:45.845Z,33.50
2018-07-17T14:23:13.955Z,33.40
2018-07-17T14:25:42.065Z,33.40
2018-07-17T14:28:10.155Z,33.40
2018-07-17T14:30:38.237Z,33.20
2018-07-17T14:33:06.577Z,32.80
2018-07-17T14:35:34.662Z,32.90
2018-07-17T14:38:02.779Z,33.00
2018-07-17T14:40:30.842Z,33.20
2018-07-17T14:42:58.940Z,33.60
2018-07-17T14:45:27.042Z,33.70
2018-07-17T14:47:55.156Z,33.80
2018-07-17T14:50:23.258Z,33.60
2018-07-17T14:52:51.382Z,33.60
2018-07-17T14:55:19.455Z,33.60
2018-07-17T14:57:47.560Z,33.40
2018-07-17T15:00:15.658Z,33.20
2018-07-17T15:02:43.751Z,33.10
2018-07-17T15:05:11.868Z,33.20
2018-07-17T15:07:39.975Z,33.40
2018-07-17T15:10:08.556Z,33.50
2018-07-17T15:12:36.663Z,33.50
2018-07-17T15:15:05.514Z,33.60
2018-07-17T15:17:33.626Z,33.50
2018-07-17T15:20:01.686Z,33.10
2018-07-17T15:22:29.919Z,32.90
2018-07-17T15:24:57.863Z,33.10
2018-07-17T15:27:25.946Z,33.10
2018-07-17T15:29:54.067Z,33.10
2018-07-17T15:32:22.182Z,33.10
2018-07-17T15:34:50.274Z,32.90
2018-07-17T15:37:18.387Z,32.80
2018-07-17T15:42:14.529Z,32.60
2018-07-17T15:44:42.633Z,32.70
2018-07-17T15:47:10.774Z,32.90
2018-07-17T15:49:38.873Z,33.10
2018-07-17T15:52:06.966Z,33.20
2018-07-17T15:54:35.068Z,33.10
2018-07-17T15:57:03.209Z,33.00
2018-07-17T15:59:31.283Z,32.90
2018-07-17T16:01:59.374Z,32.90
2018-07-17T16:04:27.459Z,32.80
2018-07-17T16:06:55.550Z,32.90
2018-07-17T16:09:23.625Z,32.80
2018-07-17T16:11:51.700Z,32.60
2018-07-17T16:14:21.191Z,32.60
2018-07-17T16:16:48.826Z,32.60
2018-07-17T16:19:16.907Z,32.70
2018-07-17T16:21:44.991Z,32.60
2018-07-17T16:24:13.092Z,32.50
2018-07-17T16:26:41.264Z,32.40
2018-07-17T16:29:09.321Z,32.40
2018-07-17T16:31:37.415Z,32.20
2018-07-17T16:34:05.659Z,32.20
2018-07-17T16:36:33.760Z,31.90
2018-07-17T16:39:01.833Z,31.80
2018-07-17T16:41:29.908Z,31.70
2018-07-17T16:43:58.000Z,31.60
2018-07-17T16:46:26.095Z,31.50
2018-07-17T16:48:54.183Z,31.30
2018-07-17T16:51:22.278Z,31.20
2018-07-17T16:53:50.360Z,31.00
2018-07-17T16:56:18.477Z,30.90
2018-07-17T16:58:46.567Z,30.90
2018-07-17T17:01:14.751Z,30.90
2018-07-17T17:03:42.787Z,30.90
2018-07-17T17:06:10.882Z,30.80
2018-07-17T17:08:39.033Z,30.70
2018-07-17T17:11:07.135Z,30.70
2018-07-17T17:13:35.225Z,30.60
2018-07-17T17:16:03.334Z,30.60
2018-07-17T17:18:31.424Z,30.50
2018-07-17T17:20:59.555Z,30.40
2018-07-17T17:23:27.612Z,30.20
2018-07-17T17:25:55.701Z,30.30
2018-07-17T17:28:23.991Z,30.30
2018-07-17T17:30:52.073Z,30.40
2018-07-17T17:33:20.170Z,30.20
2018-07-17T17:35:48.246Z,30.20
2018-07-17T17:38:16.331Z,30.10
2018-07-17T17:40:44.416Z,30.10
2018-07-17T17:43:12.513Z,30.10
2018-07-17T17:45:40.644Z,30.10
2018-07-17T17:48:08.747Z,30.10
2018-07-17T17:50:36.849Z,30.00
2018-07-17T17:53:04.939Z,29.90
2018-07-17T17:55:33.027Z,29.80
2018-07-17T17:58:01.119Z,29.70
2018-07-17T18:00:29.284Z,29.70
2018-07-17T18:02:57.359Z,29.60
2018-07-17T18:05:25.454Z,29.60
2018-07-17T18:07:53.548Z,29.50
2018-07-17T18:10:21.651Z,29.50
2018-07-17T18:12:49.729Z,29.50
2018-07-17T18:15:17.832Z,29.50
2018-07-17T18:17:45.923Z,29.40
2018-07-17T18:20:14.023Z,29.40
2018-07-17T18:22:42.128Z,29.40
2018-07-17T18:25:10.270Z,29.30
2018-07-17T18:27:38.380Z,29.30
2018-07-17T18:30:06.504Z,29.30
2018-07-17T18:32:34.596Z,29.20
2018-07-17T18:35:02.780Z,29.20
2018-07-17T18:37:30.877Z,29.20
2018-07-17T18:39:58.978Z,29.20
2018-07-17T18:42:27.096Z,29.10
2018-07-17T18:44:55.200Z,29.10
2018-07-17T18:47:23.280Z,29.10
2018-07-17T18:50:12.000Z,29.10
2018-07-17T18:52:19.575Z,29.10
2018-07-17T18:54:47.667Z,28.90
2018-07-17T18:57:15.823Z,28.80
2018-07-17T18:59:43.933Z,28.80
2018-07-17T19:02:12.005Z,28.80
2018-07-17T19:04:40.115Z,28.70
2018-07-17T19:07:08.228Z,28.70
2018-07-17T19:09:36.350Z,28.60
2018-07-17T19:12:04.449Z,28.50
2018-07-17T19:14:32.573Z,28.40
2018-07-17T19:17:00.742Z,28.30
2018-07-17T19:19:28.856Z,28.20
2018-07-17T19:21:57.009Z,28.10
2018-07-17T19:24:25.142Z,28.10
2018-07-17T19:26:53.232Z,28.00
2018-07-17T19:29:21.777Z,27.90
2018-07-17T19:31:49.893Z,27.90
2018-07-17T19:34:17.997Z,27.70
2018-07-17T19:36:46.196Z,27.70
2018-07-17T19:39:14.294Z,27.50
2018-07-17T19:41:42.667Z,27.50
2018-07-17T19:44:10.787Z,27.40
2018-07-17T19:46:38.893Z,27.30
2018-07-17T19:49:06.987Z,27.20
2018-07-17T19:51:35.108Z,27.20
2018-07-17T19:54:03.211Z,27.10
2018-07-17T19:56:31.346Z,27.10
2018-07-17T19:58:59.491Z,27.10
2018-07-17T20:01:27.607Z,27.00
2018-07-17T20:03:55.719Z,26.80
2018-07-17T20:06:23.815Z,26.70
2018-07-17T20:08:51.908Z,26.70
2018-07-17T20:11:20.008Z,26.60
2018-07-17T20:13:48.099Z,26.50
2018-07-17T20:16:16.268Z,26.50
2018-07-17T20:18:44.364Z,26.50
2018-07-17T20:21:12.484Z,26.40
2018-07-17T20:23:40.579Z,26.50
2018-07-17T20:26:08.818Z,26.50
2018-07-17T20:28:36.900Z,26.50
2018-07-17T20:31:04.981Z,26.30
2018-07-17T20:33:33.085Z,26.20
2018-07-17T20:36:01.143Z,26.10
2018-07-17T20:41:21.960Z,26.00
2018-07-17T20:43:50.060Z,25.80
2018-07-17T20:46:18.130Z,25.70
2018-07-17T20:48:46.254Z,25.70
2018-07-17T20:51:14.349Z,25.70
2018-07-17T20:53:42.431Z,25.60
2018-07-17T20:56:10.514Z,25.50
2018-07-17T20:58:38.614Z,25.60
2018-07-17T21:01:06.712Z,25.60
2018-07-17T21:03:34.803Z,25.60
2018-07-17T21:06:02.875Z,25.50
2018-07-17T21:08:30.958Z,25.40
2018-07-17T21:10:59.041Z,25.30
2018-07-17T21:13:27.122Z,25.20
2018-07-17T21:15:55.236Z,25.10
2018-07-17T21:18:23.339Z,25.00
2018-07-17T21:20:51.427Z,24.90
2018-07-17T21:23:19.537Z,24.90
2018-07-17T21:25:47.667Z,24.90
2018-07-17T21:30:43.762Z,24.80
2018-07-17T21:33:11.873Z,24.80
2018-07-17T21:38:07.862Z,24.60
2018-07-17T21:40:35.955Z,24.50
2018-07-17T21:43:04.069Z,24.40
2018-07-17T21:45:32.170Z,24.40
2018-07-17T21:48:00.266Z,24.30
2018-07-17T21:50:28.364Z,24.20
2018-07-17T21:52:56.490Z,24.20
2018-07-17T21:55:24.820Z,24.20
2018-07-17T21:57:52.916Z,24.20
2018-07-17T22:00:21.028Z,24.10
2018-07-17T22:02:49.118Z,23.90
2018-07-17T22:05:17.202Z,23.90
2018-07-17T22:07:45.370Z,23.80
2018-07-17T22:10:13.484Z,23.60
2018-07-17T22:12:41.598Z,23.50
2018-07-17T22:15:09.782Z,23.50
2018-07-17T22:20:06.083Z,23.40
2018-07-17T22:22:34.444Z,23.40
2018-07-17T22:25:02.545Z,23.30
2018-07-17T22:27:30.628Z,23.30
2018-07-17T22:29:58.861Z,23.30
2018-07-17T22:32:26.991Z,23.20
2018-07-17T22:34:55.085Z,23.20
2018-07-17T22:37:23.160Z,23.20
2018-07-17T22:39:51.313Z,23.30
2018-07-17T22:42:19.502Z,23.30
2018-07-17T22:44:47.596Z,23.20
2018-07-17T22:47:15.734Z,23.20
2018-07-17T22:49:43.807Z,23.20
2018-07-17T22:52:11.889Z,23.30
2018-07-17T22:54:40.026Z,23.30
2018-07-17T22:57:08.110Z,23.20
2018-07-17T22:59:44.108Z,23.30
2018-07-17T23:02:12.203Z,23.50
2018-07-17T23:04:40.261Z,23.50
2018-07-17T23:07:08.367Z,23.60
2018-07-17T23:09:36.494Z,23.60
2018-07-17T23:12:04.655Z,23.60
2018-07-17T23:14:32.843Z,23.70
2018-07-17T23:17:01.003Z,23.60
2018-07-17T23:19:29.093Z,23.70
2018-07-17T23:21:57.167Z,23.60
2018-07-17T23:24:25.253Z,23.60
2018-07-17T23:26:53.344Z,23.60
2018-07-17T23:29:21.424Z,23.50
2018-07-17T23:31:49.498Z,23.40
2018-07-17T23:34:17.590Z,23.30
2018-07-17T23:36:45.697Z,23.20
2018-07-17T23:39:13.830Z,23.10
2018-07-17T23:41:42.184Z,23.00
2018-07-17T23:44:10.296Z,22.90
2018-07-17T23:46:38.396Z,22.80
2018-07-17T23:49:06.487Z,22.60
2018-07-17T23:51:34.575Z,22.50
2018-07-17T23:54:02.654Z,22.40
2018-07-17T23:56:30.726Z,22.30
2018-07-17T23:58:58.832Z,22.20
